createdAt,value
2023-05-14T00:01:14.909Z,101051.90
2023-05-14T00:06:18.544Z,101042.02
2023-05-14T00:11:21.863Z,101050.42
2023-05-14T00:16:25.548Z,101035.08
2023-05-14T00:21:28.999Z,101028.48
2023-05-14T00:26:32.489Z,101025.60
2023-05-14T00:31:36.105Z,101025.53
2023-05-14T00:36:39.550Z,101023.33
2023-05-14T00:41:42.921Z,101023.99
2023-05-14T00:46:46.511Z,101022.25
2023-05-14T00:51:50.320Z,101025.35
2023-05-14T00:56:57.157Z,101022.53
2023-05-14T01:02:00.710Z,101022.16
2023-05-14T01:07:17.796Z,101023.21
2023-05-14T01:12:29.947Z,101024.90
2023-05-14T01:17:38.718Z,101022.70
2023-05-14T01:22:47.900Z,101019.80
2023-05-14T01:28:04.084Z,101015.79
2023-05-14T01:33:13.526Z,101012.06
2023-05-14T01:38:19.153Z,101015.80
2023-05-14T01:43:25.642Z,101013.45
2023-05-14T01:48:30.126Z,101006.20
2023-05-14T01:53:35.061Z,101003.25
2023-05-14T01:58:58.652Z,101003.27
2023-05-14T02:04:02.181Z,101003.70
2023-05-14T02:09:05.748Z,101005.35
2023-05-14T02:14:09.208Z,101006.30
2023-05-14T02:19:12.815Z,101001.53
2023-05-14T02:24:16.121Z,100993.80
2023-05-14T02:29:19.645Z,100991.20
2023-05-14T02:34:23.512Z,100988.52
2023-05-14T02:39:27.191Z,100981.89
2023-05-14T02:44:31.907Z,100983.60
2023-05-14T02:49:35.279Z,100983.91
2023-05-14T02:54:38.640Z,100987.39
2023-05-14T02:59:41.853Z,100998.44
2023-05-14T03:04:45.631Z,100989.99
2023-05-14T03:09:49.009Z,100989.01
2023-05-14T03:14:52.278Z,100997.34
2023-05-14T03:19:55.674Z,100996.73
2023-05-14T03:24:59.125Z,100986.77
2023-05-14T03:30:02.526Z,100981.88
2023-05-14T03:35:06.620Z,100982.14
2023-05-14T03:40:21.758Z,100984.77
2023-05-14T03:45:27.127Z,100985.10
2023-05-14T03:50:30.712Z,100982.16
2023-05-14T03:55:34.170Z,100972.33
2023-05-14T04:00:38.091Z,100964.85
2023-05-14T04:05:41.549Z,100963.57
2023-05-14T04:10:47.997Z,100960.38
2023-05-14T04:15:51.699Z,100961.85
2023-05-14T04:20:55.009Z,100966.07
2023-05-14T04:25:58.883Z,100967.10
2023-05-14T04:31:02.121Z,100971.24
2023-05-14T04:36:05.964Z,100970.08
2023-05-14T04:41:09.188Z,100967.83
2023-05-14T04:46:14.087Z,100972.15
2023-05-14T04:51:17.573Z,100973.00
2023-05-14T04:56:21.597Z,100972.00
2023-05-14T05:01:25.064Z,100972.03
2023-05-14T05:06:28.582Z,100971.33
2023-05-14T05:11:31.821Z,100969.95
2023-05-14T05:16:35.392Z,100965.71
2023-05-14T05:21:40.909Z,100963.17
2023-05-14T05:26:44.311Z,100963.35
2023-05-14T05:31:48.635Z,100961.35
2023-05-14T05:36:52.003Z,100961.84
2023-05-14T05:41:55.321Z,100964.38
2023-05-14T05:46:58.763Z,100968.35
2023-05-14T05:52:02.219Z,100967.70
2023-05-14T05:57:08.811Z,100968.10
2023-05-14T06:02:12.073Z,100972.09
2023-05-14T06:07:15.437Z,100967.75
2023-05-14T06:12:18.630Z,100967.36
2023-05-14T06:17:22.305Z,100967.10
2023-05-14T06:22:25.676Z,100967.80
2023-05-14T06:27:28.911Z,100959.98
2023-05-14T06:32:32.334Z,100963.52
2023-05-14T06:37:50.415Z,100956.07
2023-05-14T06:42:56.344Z,100954.48
2023-05-14T06:47:59.643Z,100953.55
2023-05-14T06:53:03.059Z,100952.52
2023-05-14T06:58:10.567Z,100949.98
2023-05-14T07:03:13.860Z,100942.63
2023-05-14T07:08:17.198Z,100942.82
2023-05-14T07:13:20.577Z,100944.33
2023-05-14T07:18:24.239Z,100945.17
2023-05-14T07:23:27.566Z,100938.95
2023-05-14T07:28:30.786Z,100935.41
2023-05-14T07:33:34.122Z,100935.61
2023-05-14T07:38:38.002Z,100932.64
2023-05-14T07:43:41.294Z,100928.02
2023-05-14T07:48:44.528Z,100924.61
2023-05-14T07:53:47.798Z,100925.00
2023-05-14T07:58:51.627Z,100918.08
2023-05-14T08:03:55.118Z,100917.97
2023-05-14T08:08:58.475Z,100908.63
2023-05-14T08:14:01.678Z,100900.04
2023-05-14T08:19:05.011Z,100897.67
2023-05-14T08:24:08.445Z,100894.45
2023-05-14T08:29:13.416Z,100892.34
2023-05-14T08:34:18.695Z,100890.48
2023-05-14T08:39:22.262Z,100882.55
2023-05-14T08:44:36.438Z,100875.36
2023-05-14T08:49:45.116Z,100872.14
2023-05-14T08:54:51.476Z,100864.27
2023-05-14T08:59:55.015Z,100860.36
2023-05-14T09:05:00.311Z,100859.38
2023-05-14T09:10:04.694Z,100856.60
2023-05-14T09:15:08.827Z,100854.95
2023-05-14T09:20:13.166Z,100851.17
2023-05-14T09:25:16.578Z,100848.58
2023-05-14T09:30:19.926Z,100847.02
2023-05-14T09:35:25.115Z,100841.47
2023-05-14T09:40:29.190Z,100846.98
2023-05-14T09:45:32.765Z,100841.84
2023-05-14T09:50:42.998Z,100839.95
2023-05-14T09:55:46.882Z,100833.35
2023-05-14T10:01:13.505Z,100828.78
2023-05-14T10:07:12.326Z,100827.29
2023-05-14T10:12:58.766Z,100817.93
2023-05-14T10:18:40.607Z,100815.17
2023-05-14T10:24:05.710Z,100811.19
2023-05-14T10:35:13.395Z,100798.13
2023-05-14T10:40:24.949Z,100790.77
2023-05-14T10:45:33.936Z,100786.67
2023-05-14T10:50:40.097Z,100779.20
2023-05-14T10:55:44.315Z,100773.67
2023-05-14T11:00:50.168Z,100761.79
2023-05-14T11:05:54.956Z,100752.42
2023-05-14T11:10:58.410Z,100740.00
2023-05-14T11:16:15.044Z,100729.60
2023-05-14T11:21:25.533Z,100722.69
2023-05-14T11:26:28.969Z,100723.32
2023-05-14T11:31:32.431Z,100713.03
2023-05-14T11:36:37.199Z,100700.51
2023-05-14T11:41:45.770Z,100683.09
2023-05-14T11:46:59.469Z,100672.20
2023-05-14T11:52:07.456Z,100673.20
2023-05-14T11:57:19.773Z,100667.08
2023-05-14T12:02:23.518Z,100657.78
2023-05-14T12:07:30.260Z,100649.36
2023-05-14T12:12:37.425Z,100640.93
2023-05-14T12:17:41.330Z,100643.33
2023-05-14T12:22:44.591Z,100642.52
2023-05-14T12:27:47.939Z,100640.52
2023-05-14T12:32:53.065Z,100628.17
2023-05-14T12:38:02.577Z,100626.98
2023-05-14T12:43:08.463Z,100616.19
2023-05-14T12:48:18.069Z,100612.48
2023-05-14T12:53:33.217Z,100610.06
2023-05-14T12:58:57.297Z,100600.44
2023-05-14T13:04:01.023Z,100592.02
2023-05-14T13:09:04.547Z,100589.27
2023-05-14T13:14:17.858Z,100587.77
2023-05-14T13:19:28.080Z,100585.42
2023-05-14T13:24:31.585Z,100586.81
2023-05-14T13:29:47.029Z,100582.90
2023-05-14T13:34:53.132Z,100576.09
2023-05-14T13:40:20.874Z,100564.92
2023-05-14T13:45:35.585Z,100556.46
2023-05-14T13:50:38.822Z,100557.02
2023-05-14T13:55:56.523Z,100548.42
2023-05-14T14:01:00.026Z,100532.47
2023-05-14T14:06:18.672Z,100527.73
2023-05-14T14:11:22.101Z,100527.48
2023-05-14T14:16:25.410Z,100515.64
2023-05-14T14:21:51.815Z,100509.72
2023-05-14T14:27:02.506Z,100505.86
2023-05-14T14:32:06.349Z,100502.45
2023-05-14T14:37:13.040Z,100494.72
2023-05-14T14:42:22.428Z,100493.30
2023-05-14T14:47:25.719Z,100491.75
2023-05-14T14:52:29.245Z,100483.16
2023-05-14T15:03:33.515Z,100470.32
2023-05-14T15:08:49.348Z,100465.84
2023-05-14T15:13:59.096Z,100465.09
2023-05-14T15:19:05.090Z,100467.92
2023-05-14T15:24:25.248Z,100466.13
2023-05-14T15:29:55.868Z,100463.16
2023-05-14T15:35:01.989Z,100456.82
2023-05-14T15:40:15.142Z,100453.13
2023-05-14T15:45:21.225Z,100449.73
2023-05-14T15:50:49.656Z,100450.08
2023-05-14T15:56:05.684Z,100445.55
2023-05-14T16:01:40.457Z,100441.64
2023-05-14T16:07:01.874Z,100435.50
2023-05-14T16:12:23.152Z,100431.89
2023-05-14T16:18:25.353Z,100425.50
2023-05-14T16:48:23.256Z,100395.59
2023-05-14T16:54:05.672Z,100396.70
2023-05-14T17:12:32.697Z,100380.83
2023-05-14T17:18:53.191Z,100379.86
2023-05-14T17:24:39.121Z,100384.46
2023-05-14T17:29:59.898Z,100385.71
2023-05-14T17:35:10.507Z,100386.39
2023-05-14T17:41:03.228Z,100380.36
2023-05-14T17:46:53.832Z,100378.50
2023-05-14T17:52:33.377Z,100374.12
2023-05-14T17:57:54.247Z,100366.51
2023-05-14T18:03:37.832Z,100373.45
2023-05-14T18:14:32.547Z,100369.36
2023-05-14T18:19:36.776Z,100370.34
2023-05-14T18:25:07.852Z,100368.45
2023-05-14T18:30:39.945Z,100371.31
2023-05-14T18:35:49.688Z,100372.32
2023-05-14T18:40:52.940Z,100371.62
2023-05-14T18:45:56.282Z,100370.72
2023-05-14T18:51:18.192Z,100370.10
2023-05-14T18:56:25.704Z,100372.70
2023-05-14T19:01:51.406Z,100372.27
2023-05-14T19:07:00.634Z,100369.08
2023-05-14T19:12:09.943Z,100369.84
2023-05-14T19:17:31.827Z,100363.58
2023-05-14T19:40:50.925Z,100346.52
2023-05-14T19:46:12.329Z,100342.06
2023-05-14T19:51:15.730Z,100340.60
2023-05-14T19:56:19.190Z,100336.30
2023-05-14T20:01:22.752Z,100339.96
2023-05-14T20:06:26.287Z,100329.60
2023-05-14T20:11:29.453Z,100328.16
2023-05-14T20:16:32.683Z,100324.23
2023-05-14T20:21:35.989Z,100322.64
2023-05-14T20:26:39.215Z,100320.98
2023-05-14T20:31:42.554Z,100319.94
2023-05-14T20:36:46.107Z,100315.20
2023-05-14T20:41:49.598Z,100311.45
2023-05-14T20:46:53.174Z,100301.11
2023-05-14T20:51:56.602Z,100293.44
2023-05-14T20:56:59.989Z,100286.88
2023-05-14T21:02:03.940Z,100278.48
2023-05-14T21:07:30.409Z,100271.02
2023-05-14T21:12:33.700Z,100262.42
2023-05-14T21:17:37.090Z,100261.59
2023-05-14T21:22:40.825Z,100257.44
2023-05-14T21:27:44.099Z,100250.69
2023-05-14T21:32:47.623Z,100250.36
2023-05-14T21:37:51.692Z,100253.11
2023-05-14T21:42:55.039Z,100243.61
2023-05-14T21:47:58.748Z,100238.63
2023-05-14T21:53:12.559Z,100232.13
2023-05-14T21:58:15.919Z,100227.73
2023-05-14T22:03:19.531Z,100221.75
2023-05-14T22:08:23.920Z,100218.19
2023-05-14T22:13:27.518Z,100213.80
2023-05-14T22:18:31.352Z,100207.20
2023-05-14T22:23:34.549Z,100201.64
2023-05-14T22:28:42.911Z,100197.89
2023-05-14T22:33:46.215Z,100196.92
2023-05-14T22:38:49.375Z,100188.44
2023-05-14T22:43:52.660Z,100182.98
2023-05-14T22:48:56.289Z,100179.34
2023-05-14T22:53:59.448Z,100167.33
2023-05-14T22:59:02.649Z,100162.35
2023-05-14T23:04:06.025Z,100155.77
2023-05-14T23:09:09.818Z,100152.04
2023-05-14T23:14:13.012Z,100147.73
2023-05-14T23:19:16.513Z,100139.70
2023-05-14T23:24:19.942Z,100133.76
2023-05-14T23:29:23.241Z,100127.73
2023-05-14T23:34:27.242Z,100120.60
2023-05-14T23:39:30.778Z,100115.92
2023-05-14T23:44:34.059Z,100108.98
2023-05-14T23:49:37.580Z,100102.79
2023-05-14T23:54:40.925Z,100095.02
2023-05-14T23:59:44.247Z,100090.17
